createdAt,value
2018-07-08T00:00:19.387Z,17.90
2018-07-08T00:02:54.717Z,17.90
2018-07-08T00:05:29.819Z,17.80
2018-07-08T00:08:04.740Z,17.80
2018-07-08T00:10:41.798Z,17.80
2018-07-08T00:13:17.085Z,17.80
2018-07-08T00:15:52.606Z,17.70
2018-07-08T00:18:28.140Z,17.70
2018-07-08T00:21:03.279Z,17.70
2018-07-08T00:23:39.330Z,17.60
2018-07-08T00:26:14.431Z,17.60
2018-07-08T00:28:49.266Z,17.50
2018-07-08T00:31:24.512Z,17.50
2018-07-08T00:33:59.594Z,17.40
2018-07-08T00:36:34.299Z,17.40
2018-07-08T00:39:09.744Z,17.30
2018-07-08T00:41:44.912Z,17.30
2018-07-08T00:44:15.095Z,17.30
2018-07-08T00:46:50.191Z,17.30
2018-07-08T00:49:32.014Z,17.30
2018-07-08T00:52:06.992Z,17.20
2018-07-08T00:54:42.286Z,17.20
2018-07-08T00:57:17.223Z,17.20
2018-07-08T00:59:52.538Z,17.20
2018-07-08T01:02:27.561Z,17.20
2018-07-08T01:05:02.253Z,17.10
2018-07-08T01:07:37.071Z,17.10
2018-07-08T01:10:12.232Z,17.10
2018-07-08T01:12:46.932Z,17.10
2018-07-08T01:15:22.380Z,17.10
2018-07-08T01:17:57.223Z,17.00
2018-07-08T01:20:32.352Z,16.90
2018-07-08T01:23:07.380Z,16.90
2018-07-08T01:25:53.634Z,16.80
2018-07-08T01:28:28.698Z,16.80
2018-07-08T01:31:03.983Z,16.80
2018-07-08T01:33:39.125Z,16.80
2018-07-08T01:36:14.112Z,16.70
2018-07-08T01:38:49.150Z,16.60
2018-07-08T01:41:24.382Z,16.60
2018-07-08T01:44:01.113Z,16.50
2018-07-08T01:46:36.006Z,16.50
2018-07-08T01:51:45.624Z,16.30
2018-07-08T01:54:20.465Z,16.20
2018-07-08T01:56:55.746Z,16.20
2018-07-08T01:59:31.255Z,16.20
2018-07-08T02:02:07.212Z,16.20
2018-07-08T02:04:42.175Z,16.10
2018-07-08T02:07:17.741Z,16.10
2018-07-08T02:09:52.762Z,16.10
2018-07-08T02:12:27.921Z,16.10
2018-07-08T02:15:02.607Z,16.00
2018-07-08T02:17:32.252Z,15.90
2018-07-08T02:20:07.606Z,15.90
2018-07-08T02:22:42.571Z,15.80
2018-07-08T02:25:17.603Z,15.70
2018-07-08T02:27:52.691Z,15.70
2018-07-08T02:30:30.601Z,15.60
2018-07-08T02:33:05.569Z,15.60
2018-07-08T02:35:41.715Z,15.60
2018-07-08T02:38:11.466Z,15.60
2018-07-08T02:40:47.122Z,15.60
2018-07-08T02:43:22.125Z,15.50
2018-07-08T02:45:57.522Z,15.40
2018-07-08T02:48:27.608Z,15.40
2018-07-08T02:51:02.585Z,15.40
2018-07-08T02:53:37.654Z,15.40
2018-07-08T02:58:47.355Z,15.30
2018-07-08T03:01:23.193Z,15.30
2018-07-08T03:03:58.231Z,15.30
2018-07-08T03:06:33.212Z,15.20
2018-07-08T03:09:02.451Z,15.20
2018-07-08T03:11:37.600Z,15.10
2018-07-08T03:14:12.632Z,15.10
2018-07-08T03:16:47.869Z,15.10
2018-07-08T03:19:23.334Z,15.00
2018-07-08T03:22:02.186Z,15.00
2018-07-08T03:24:37.124Z,15.10
2018-07-08T03:27:12.092Z,15.10
2018-07-08T03:34:50.186Z,15.00
2018-07-08T03:37:25.066Z,15.00
2018-07-08T03:40:00.316Z,15.00
2018-07-08T03:42:35.322Z,14.90
2018-07-08T03:45:10.251Z,14.90
2018-07-08T03:47:45.249Z,14.80
2018-07-08T03:50:20.119Z,14.80
2018-07-08T03:52:55.067Z,14.80
2018-07-08T03:55:29.759Z,14.80
2018-07-08T03:58:04.627Z,14.70
2018-07-08T04:00:33.949Z,14.80
2018-07-08T04:03:15.123Z,14.80
2018-07-08T04:05:50.142Z,14.80
2018-07-08T04:08:25.037Z,14.70
2018-07-08T04:10:59.698Z,14.80
2018-07-08T04:13:34.790Z,14.80
2018-07-08T04:16:10.684Z,14.80
2018-07-08T04:18:45.502Z,14.80
2018-07-08T04:21:20.438Z,14.80
2018-07-08T04:23:55.372Z,14.80
2018-07-08T04:26:30.207Z,14.80
2018-07-08T04:29:05.132Z,14.90
2018-07-08T04:31:40.155Z,14.90
2018-07-08T04:34:15.087Z,15.00
2018-07-08T04:36:49.981Z,15.00
2018-07-08T04:41:59.474Z,15.00
2018-07-08T04:44:34.183Z,15.10
2018-07-08T04:47:09.033Z,15.10
2018-07-08T04:49:43.888Z,15.20
2018-07-08T04:52:18.524Z,15.20
2018-07-08T04:54:53.451Z,15.20
2018-07-08T04:57:28.219Z,15.10
2018-07-08T05:00:03.641Z,15.20
2018-07-08T05:02:38.611Z,15.20
2018-07-08T05:07:48.501Z,15.30
2018-07-08T05:10:24.132Z,15.40
2018-07-08T05:12:59.041Z,15.40
2018-07-08T05:15:33.956Z,15.40
2018-07-08T05:18:08.787Z,15.50
2018-07-08T05:20:43.871Z,15.60
2018-07-08T05:23:18.880Z,15.60
2018-07-08T05:28:28.439Z,15.70
2018-07-08T05:31:03.482Z,15.70
2018-07-08T05:33:39.029Z,15.70
2018-07-08T05:36:13.988Z,15.70
2018-07-08T05:38:49.543Z,15.70
2018-07-08T05:41:24.584Z,15.70
2018-07-08T05:46:33.830Z,15.70
2018-07-08T05:49:08.874Z,15.70
2018-07-08T05:51:45.467Z,15.70
2018-07-08T05:54:20.333Z,15.80
2018-07-08T05:56:55.257Z,15.80
2018-07-08T05:59:30.174Z,15.80
2018-07-08T06:02:05.198Z,15.90
2018-07-08T06:04:40.861Z,15.80
2018-07-08T06:07:16.731Z,15.80
2018-07-08T06:09:51.792Z,15.80
2018-07-08T06:12:26.763Z,15.80
2018-07-08T06:15:01.982Z,15.80
2018-07-08T06:17:37.087Z,15.90
2018-07-08T06:20:12.780Z,15.90
2018-07-08T06:22:47.674Z,16.00
2018-07-08T06:25:22.683Z,16.00
2018-07-08T06:27:57.787Z,16.00
2018-07-08T06:30:33.189Z,16.00
2018-07-08T06:33:08.151Z,16.10
2018-07-08T06:35:43.336Z,16.10
2018-07-08T06:38:18.590Z,16.10
2018-07-08T06:40:54.016Z,16.20
2018-07-08T06:43:29.139Z,16.30
2018-07-08T06:45:59.396Z,16.30
2018-07-08T06:48:34.763Z,16.40
2018-07-08T06:51:09.868Z,16.30
2018-07-08T06:53:44.883Z,16.40
2018-07-08T06:56:20.167Z,16.40
2018-07-08T06:58:55.151Z,16.50
2018-07-08T07:01:30.501Z,16.50
2018-07-08T07:04:05.975Z,16.60
2018-07-08T07:06:35.392Z,16.60
2018-07-08T07:11:46.527Z,16.70
2018-07-08T07:14:21.821Z,16.70
2018-07-08T07:16:56.754Z,16.80
2018-07-08T07:19:31.906Z,16.80
2018-07-08T07:22:07.360Z,16.90
2018-07-08T07:24:42.169Z,16.90
2018-07-08T07:27:17.051Z,17.00
2018-07-08T07:29:52.353Z,17.10
2018-07-08T07:32:27.852Z,17.20
2018-07-08T07:35:03.076Z,17.20
2018-07-08T07:37:37.916Z,17.20
2018-07-08T07:40:13.380Z,17.20
2018-07-08T07:42:48.390Z,17.30
2018-07-08T07:45:23.308Z,17.40
2018-07-08T07:47:58.723Z,17.50
2018-07-08T07:50:33.692Z,17.50
2018-07-08T07:53:09.048Z,17.50
2018-07-08T07:55:43.898Z,17.70
2018-07-08T07:58:18.941Z,17.80
2018-07-08T08:00:54.136Z,17.80
2018-07-08T08:03:29.548Z,17.80
2018-07-08T08:06:04.675Z,17.90
2018-07-08T08:11:15.241Z,18.00
2018-07-08T08:14:00.195Z,18.00
2018-07-08T08:16:35.303Z,18.10
2018-07-08T08:19:10.384Z,18.30
2018-07-08T08:21:45.408Z,18.50
2018-07-08T08:24:20.770Z,18.60
2018-07-08T08:26:56.385Z,18.70
2018-07-08T08:29:31.380Z,18.80
2018-07-08T08:32:07.043Z,18.90
2018-07-08T08:35:22.545Z,19.00
2018-07-08T08:37:58.262Z,19.00
2018-07-08T08:40:33.229Z,19.20
2018-07-08T08:43:08.284Z,19.20
2018-07-08T08:45:43.489Z,19.30
2018-07-08T08:48:18.780Z,19.40
2018-07-08T08:50:53.685Z,19.50
2018-07-08T08:53:28.673Z,19.50
2018-07-08T08:56:11.282Z,19.50
2018-07-08T08:58:47.137Z,19.70
2018-07-08T09:01:22.217Z,19.80
2018-07-08T09:03:57.757Z,19.80
2018-07-08T09:06:33.117Z,19.90
2018-07-08T09:09:08.504Z,20.10
2018-07-08T09:11:44.511Z,20.10
2018-07-08T09:14:20.215Z,20.10
2018-07-08T09:16:56.129Z,20.20
2018-07-08T09:19:31.181Z,20.30
2018-07-08T09:22:06.512Z,20.30
2018-07-08T09:24:41.521Z,20.40
2018-07-08T09:27:16.972Z,20.50
2018-07-08T09:29:52.336Z,20.60
2018-07-08T09:32:28.675Z,20.70
2018-07-08T09:35:03.973Z,20.80
2018-07-08T09:37:39.153Z,20.90
2018-07-08T09:40:14.220Z,21.00
2018-07-08T09:45:18.281Z,21.10
2018-07-08T09:47:55.984Z,21.30
2018-07-08T09:50:31.156Z,21.40
2018-07-08T09:53:06.616Z,21.50
2018-07-08T09:55:41.403Z,21.40
2018-07-08T09:58:16.222Z,21.50
2018-07-08T10:00:51.389Z,21.60
2018-07-08T10:03:20.935Z,21.70
2018-07-08T10:05:56.181Z,21.90
2018-07-08T10:08:31.342Z,22.10
2018-07-08T10:11:06.548Z,22.20
2018-07-08T10:13:41.945Z,22.20
2018-07-08T10:16:17.620Z,22.20
2018-07-08T10:18:53.262Z,22.20
2018-07-08T10:21:28.802Z,22.30
2018-07-08T10:24:04.671Z,22.40
2018-07-08T10:26:40.222Z,22.50
2018-07-08T10:29:17.548Z,22.50
2018-07-08T10:31:53.166Z,22.40
2018-07-08T10:34:28.082Z,22.40
2018-07-08T10:37:03.832Z,22.50
2018-07-08T10:39:38.963Z,22.60
2018-07-08T10:42:13.700Z,22.60
2018-07-08T10:47:23.218Z,22.60
2018-07-08T10:49:58.712Z,22.60
2018-07-08T10:52:33.889Z,22.60
2018-07-08T10:55:09.177Z,22.80
2018-07-08T10:57:44.718Z,22.80
2018-07-08T11:00:19.886Z,22.90
2018-07-08T11:02:54.984Z,23.10
2018-07-08T11:05:30.085Z,23.10
2018-07-08T11:08:05.381Z,23.00
2018-07-08T11:10:40.322Z,23.00
2018-07-08T11:13:15.544Z,23.20
2018-07-08T11:15:45.133Z,23.20
2018-07-08T11:18:20.050Z,23.20
2018-07-08T11:20:55.536Z,23.10
2018-07-08T11:23:31.070Z,23.10
2018-07-08T11:26:06.580Z,23.30
2018-07-08T11:28:41.781Z,23.40
2018-07-08T11:31:16.987Z,23.70
2018-07-08T11:33:52.874Z,23.80
2018-07-08T11:36:22.309Z,23.90
2018-07-08T11:38:57.440Z,24.00
2018-07-08T11:41:32.303Z,23.90
2018-07-08T11:44:07.810Z,23.90
2018-07-08T11:46:43.007Z,24.00
2018-07-08T11:49:18.623Z,24.30
2018-07-08T11:51:54.608Z,24.50
2018-07-08T11:54:29.485Z,24.80
2018-07-08T11:56:59.131Z,25.00
2018-07-08T11:59:34.246Z,25.00
2018-07-08T12:02:09.770Z,25.10
2018-07-08T12:04:45.197Z,25.00
2018-07-08T12:07:20.381Z,24.90
2018-07-08T12:09:55.340Z,24.90
2018-07-08T12:12:30.345Z,25.00
2018-07-08T12:15:05.681Z,25.20
2018-07-08T12:17:40.894Z,25.30
2018-07-08T12:20:15.829Z,25.30
2018-07-08T12:22:50.787Z,25.40
2018-07-08T12:25:25.643Z,25.50
2018-07-08T12:28:00.865Z,25.40
2018-07-08T12:30:36.060Z,25.50
2018-07-08T12:35:46.531Z,25.70
2018-07-08T12:38:21.766Z,25.90
2018-07-08T12:40:57.027Z,26.30
2018-07-08T12:43:31.996Z,26.10
2018-07-08T12:46:07.333Z,25.90
2018-07-08T12:48:42.494Z,25.90
2018-07-08T12:51:17.336Z,25.60
2018-07-08T12:56:27.910Z,25.40
2018-07-08T12:59:02.921Z,25.30
2018-07-08T13:01:38.124Z,25.40
2018-07-08T13:04:13.397Z,25.30
2018-07-08T13:06:48.652Z,25.20
2018-07-08T13:11:53.257Z,25.30
2018-07-08T13:14:28.532Z,25.40
2018-07-08T13:19:32.557Z,25.30
2018-07-08T13:22:07.681Z,25.40
2018-07-08T13:24:42.843Z,25.50
2018-07-08T13:27:18.163Z,25.70
2018-07-08T13:29:53.400Z,25.90
2018-07-08T13:32:28.397Z,26.00
2018-07-08T13:35:03.855Z,26.20
2018-07-08T13:37:34.659Z,26.50
2018-07-08T13:40:09.997Z,26.40
2018-07-08T13:42:45.148Z,26.20
2018-07-08T13:45:20.143Z,26.30
2018-07-08T13:47:55.364Z,26.40
2018-07-08T13:50:30.714Z,26.50
2018-07-08T13:55:40.862Z,26.50
2018-07-08T13:58:16.120Z,26.60
2018-07-08T14:00:51.441Z,26.60
2018-07-08T14:03:26.815Z,26.70
2018-07-08T14:06:01.925Z,26.70
2018-07-08T14:08:36.980Z,26.70
2018-07-08T14:11:11.815Z,26.60
2018-07-08T14:13:47.037Z,26.60
2018-07-08T14:16:21.989Z,26.60
2018-07-08T14:18:57.167Z,26.70
2018-07-08T14:21:32.494Z,26.70
2018-07-08T14:24:07.603Z,26.70
2018-07-08T14:26:42.673Z,26.80
2018-07-08T14:29:12.561Z,26.80
2018-07-08T14:31:47.379Z,26.80
2018-07-08T14:34:22.871Z,26.90
2018-07-08T14:36:58.269Z,27.00
2018-07-08T14:42:08.536Z,26.90
2018-07-08T14:44:43.740Z,27.00
2018-07-08T14:47:19.246Z,27.00
2018-07-08T14:49:48.898Z,26.90
2018-07-08T14:52:23.735Z,27.00
2018-07-08T14:54:59.002Z,27.10
2018-07-08T14:57:34.571Z,27.10
2018-07-08T15:00:09.874Z,27.20
2018-07-08T15:02:45.297Z,27.30
2018-07-08T15:05:20.775Z,27.30
2018-07-08T15:07:56.316Z,27.40
2018-07-08T15:10:32.555Z,27.40
2018-07-08T15:13:07.859Z,27.50
2018-07-08T15:15:42.732Z,27.50
2018-07-08T15:18:18.157Z,27.60
2018-07-08T15:20:53.216Z,27.60
2018-07-08T15:23:28.942Z,27.80
2018-07-08T15:26:04.591Z,27.70
2018-07-08T15:28:39.656Z,27.40
2018-07-08T15:31:14.869Z,27.50
2018-07-08T15:33:50.013Z,27.60
2018-07-08T15:36:19.786Z,27.90
2018-07-08T15:38:54.892Z,28.10
2018-07-08T15:41:29.834Z,28.30
2018-07-08T15:44:05.652Z,28.50
2018-07-08T15:46:40.799Z,28.70
2018-07-08T15:49:16.055Z,28.80
2018-07-08T15:51:51.275Z,28.90
2018-07-08T15:54:26.248Z,28.90
2018-07-08T15:59:30.299Z,28.70
2018-07-08T16:02:05.726Z,28.60
2018-07-08T16:04:41.243Z,28.50
2018-07-08T16:07:16.790Z,28.30
2018-07-08T16:09:52.059Z,28.10
2018-07-08T16:12:27.021Z,28.00
2018-07-08T16:15:02.973Z,28.00
2018-07-08T16:17:38.379Z,28.10
2018-07-08T16:20:13.081Z,28.00
2018-07-08T16:22:48.371Z,28.00
2018-07-08T16:25:23.381Z,27.90
2018-07-08T16:27:58.291Z,27.90
2018-07-08T16:30:33.786Z,27.70
2018-07-08T16:33:09.071Z,27.70
2018-07-08T16:35:47.718Z,27.70
2018-07-08T16:38:22.950Z,27.50
2018-07-08T16:40:57.694Z,27.50
2018-07-08T16:43:33.141Z,27.40
2018-07-08T16:46:08.207Z,27.40
2018-07-08T16:48:47.814Z,27.40
2018-07-08T16:53:58.698Z,27.40
2018-07-08T16:56:33.957Z,27.40
2018-07-08T16:59:10.691Z,27.40
2018-07-08T17:01:50.694Z,27.40
2018-07-08T17:04:24.358Z,27.30
2018-07-08T17:06:59.763Z,27.30
2018-07-08T17:09:36.092Z,27.30
2018-07-08T17:12:12.235Z,27.30
2018-07-08T17:14:47.517Z,27.20
2018-07-08T17:17:23.085Z,27.20
2018-07-08T17:19:59.885Z,27.20
2018-07-08T17:22:35.512Z,27.20
2018-07-08T17:27:40.221Z,27.20
2018-07-08T17:30:15.847Z,27.10
2018-07-08T17:32:52.328Z,27.00
2018-07-08T17:35:27.835Z,27.00
2018-07-08T17:38:02.772Z,26.90
2018-07-08T17:40:38.006Z,26.80
2018-07-08T17:43:13.503Z,26.60
2018-07-08T17:45:43.263Z,26.50
2018-07-08T17:48:18.601Z,26.50
2018-07-08T17:50:53.857Z,26.40
2018-07-08T17:53:30.332Z,26.40
2018-07-08T17:56:05.511Z,26.40
2018-07-08T17:58:40.356Z,26.40
2018-07-08T18:01:16.606Z,26.50
2018-07-08T18:03:51.549Z,26.40
2018-07-08T18:06:20.989Z,26.40
2018-07-08T18:08:55.929Z,26.40
2018-07-08T18:11:31.031Z,26.40
2018-07-08T18:14:06.629Z,26.30
2018-07-08T18:16:41.630Z,26.30
2018-07-08T18:19:16.814Z,26.30
2018-07-08T18:21:51.993Z,26.20
2018-07-08T18:24:27.256Z,26.00
2018-07-08T18:26:59.282Z,25.90
2018-07-08T18:29:34.286Z,25.90
2018-07-08T18:32:09.723Z,25.90
2018-07-08T18:34:45.012Z,25.80
2018-07-08T18:37:20.237Z,25.70
2018-07-08T18:39:55.623Z,25.60
2018-07-08T18:42:30.625Z,25.40
2018-07-08T18:45:06.112Z,25.20
2018-07-08T18:47:41.624Z,25.00
2018-07-08T18:50:16.639Z,24.90
2018-07-08T18:52:52.180Z,24.70
2018-07-08T18:55:27.236Z,24.60
2018-07-08T18:58:02.510Z,24.50
2018-07-08T19:00:37.592Z,24.40
2018-07-08T19:03:13.291Z,24.30
2018-07-08T19:05:49.247Z,24.20
2018-07-08T19:08:26.506Z,24.20
2018-07-08T19:11:02.818Z,24.20
2018-07-08T19:13:38.178Z,24.10
2018-07-08T19:16:13.568Z,24.10
2018-07-08T19:18:48.976Z,24.10
2018-07-08T19:21:24.850Z,24.00
2018-07-08T19:24:00.303Z,24.00
2018-07-08T19:26:35.903Z,23.80
2018-07-08T19:29:11.281Z,23.70
2018-07-08T19:31:46.995Z,23.60
2018-07-08T19:34:22.122Z,23.50
2018-07-08T19:36:58.260Z,23.50
2018-07-08T19:39:34.008Z,23.50
2018-07-08T19:42:09.175Z,23.40
2018-07-08T19:44:44.345Z,23.30
2018-07-08T19:47:19.810Z,23.30
2018-07-08T19:49:55.579Z,23.20
2018-07-08T19:52:30.991Z,23.20
2018-07-08T19:55:06.573Z,23.10
2018-07-08T19:57:41.994Z,23.00
2018-07-08T20:00:24.378Z,23.00
2018-07-08T20:03:00.179Z,22.90
2018-07-08T20:05:35.273Z,22.80
2018-07-08T20:08:12.461Z,22.70
2018-07-08T20:10:49.677Z,22.70
2018-07-08T20:13:24.953Z,22.60
2018-07-08T20:16:00.724Z,22.60
2018-07-08T20:18:36.052Z,22.50
2018-07-08T20:21:11.774Z,22.50
2018-07-08T20:23:47.299Z,22.50
2018-07-08T20:26:24.429Z,22.50
2018-07-08T20:28:59.419Z,22.40
2018-07-08T20:31:37.122Z,22.30
2018-07-08T20:34:13.254Z,22.30
2018-07-08T20:36:48.461Z,22.20
2018-07-08T20:39:26.420Z,22.10
2018-07-08T20:42:02.981Z,22.10
2018-07-08T20:44:38.415Z,22.00
2018-07-08T20:47:13.378Z,21.90
2018-07-08T20:49:45.773Z,21.90
2018-07-08T20:52:24.110Z,21.80
2018-07-08T20:55:01.099Z,21.70
2018-07-08T20:57:37.966Z,21.70
2018-07-08T21:00:13.943Z,21.70
2018-07-08T21:02:49.087Z,21.70
2018-07-08T21:05:25.270Z,21.60
2018-07-08T21:08:00.594Z,21.60
2018-07-08T21:10:30.940Z,21.50
2018-07-08T21:13:07.685Z,21.50
2018-07-08T21:15:43.116Z,21.40
2018-07-08T21:18:19.264Z,21.40
2018-07-08T21:20:54.790Z,21.40
2018-07-08T21:23:30.533Z,21.30
2018-07-08T21:26:09.548Z,21.30
2018-07-08T21:28:46.991Z,21.30
2018-07-08T21:31:19.564Z,21.20
2018-07-08T21:33:55.054Z,21.20
2018-07-08T21:36:30.291Z,21.10
2018-07-08T21:39:08.063Z,21.10
2018-07-08T21:41:38.171Z,21.00
2018-07-08T21:44:13.486Z,20.90
2018-07-08T21:49:23.290Z,20.80
2018-07-08T21:51:58.412Z,20.80
2018-07-08T21:54:33.596Z,20.80
2018-07-08T21:57:08.584Z,20.80
2018-07-08T21:59:44.434Z,20.70
2018-07-08T22:02:22.314Z,20.70
2018-07-08T22:04:57.685Z,20.50
2018-07-08T22:07:38.559Z,20.50
2018-07-08T22:10:13.772Z,20.40
2018-07-08T22:12:48.940Z,20.40
2018-07-08T22:15:24.049Z,20.30
2018-07-08T22:17:59.159Z,20.30
2018-07-08T22:20:34.098Z,20.30
2018-07-08T22:23:07.554Z,20.30
2018-07-08T22:25:42.639Z,20.20
2018-07-08T22:28:17.940Z,20.20
2018-07-08T22:30:52.977Z,20.10
2018-07-08T22:33:28.159Z,20.10
2018-07-08T22:36:03.362Z,20.10
2018-07-08T22:38:38.673Z,20.10
2018-07-08T22:41:13.882Z,20.10
2018-07-08T22:46:23.836Z,19.90
2018-07-08T22:48:59.091Z,19.90
2018-07-08T22:51:34.318Z,19.80
2018-07-08T22:54:09.572Z,19.80
2018-07-08T22:56:44.704Z,19.70
2018-07-08T22:59:19.711Z,19.70
2018-07-08T23:02:05.940Z,19.60
2018-07-08T23:04:41.355Z,19.60
2018-07-08T23:07:16.533Z,19.60
2018-07-08T23:09:52.122Z,19.50
2018-07-08T23:12:27.373Z,19.50
2018-07-08T23:15:02.343Z,19.50
2018-07-08T23:17:37.251Z,19.40
2018-07-08T23:20:12.194Z,19.40
2018-07-08T23:22:55.820Z,19.30
2018-07-08T23:25:30.657Z,19.30
2018-07-08T23:28:05.878Z,19.30
2018-07-08T23:30:40.922Z,19.20
2018-07-08T23:33:16.657Z,19.20
2018-07-08T23:35:52.031Z,19.20
2018-07-08T23:38:27.157Z,19.10
2018-07-08T23:41:03.169Z,19.10
2018-07-08T23:43:38.159Z,19.10
2018-07-08T23:46:13.585Z,19.00
2018-07-08T23:48:48.547Z,18.90
2018-07-08T23:51:24.069Z,18.90
2018-07-08T23:53:59.370Z,18.90
2018-07-08T23:56:34.323Z,18.90
2018-07-08T23:59:09.197Z,18.80
